sensor_id;sensor_type;location;lat;lon;timestamp;P1;durP1;ratioP1;P2;durP2;ratioP2
76788;SDS011;65740;52.464;13.446;2023-04-06T00:01:41;2.83;;;2.63;;
76788;SDS011;65740;52.464;13.446;2023-04-06T00:04:06;2.87;;;2.67;;
76788;SDS011;65740;52.464;13.446;2023-04-06T00:06:32;3.33;;;3.03;;
76788;SDS011;65740;52.464;13.446;2023-04-06T00:08:59;3.70;;;3.03;;
76788;SDS011;65740;52.464;13.446;2023-04-06T00:11:25;3.30;;;3.10;;
76788;SDS011;65740;52.464;13.446;2023-04-06T00:13:51;2.80;;;2.60;;
76788;SDS011;65740;52.464;13.446;2023-04-06T00:16:17;3.30;;;3.10;;
76788;SDS011;65740;52.464;13.446;2023-04-06T00:18:43;2.87;;;2.73;;
76788;SDS011;65740;52.464;13.446;2023-04-06T00:21:12;3.40;;;2.90;;
76788;SDS011;65740;52.464;13.446;2023-04-06T00:23:39;3.30;;;3.10;;
76788;SDS011;65740;52.464;13.446;2023-04-06T00:26:05;3.47;;;3.17;;
76788;SDS011;65740;52.464;13.446;2023-04-06T00:28:31;3.20;;;3.00;;
76788;SDS011;65740;52.464;13.446;2023-04-06T00:30:57;2.73;;;2.53;;
76788;SDS011;65740;52.464;13.446;2023-04-06T00:33:23;3.10;;;2.90;;
76788;SDS011;65740;52.464;13.446;2023-04-06T00:35:49;3.40;;;3.13;;
76788;SDS011;65740;52.464;13.446;2023-04-06T00:38:15;3.83;;;3.53;;
76788;SDS011;65740;52.464;13.446;2023-04-06T00:40:41;4.03;;;3.43;;
76788;SDS011;65740;52.464;13.446;2023-04-06T00:43:09;2.73;;;2.63;;
76788;SDS011;65740;52.464;13.446;2023-04-06T00:45:36;3.50;;;3.20;;
76788;SDS011;65740;52.464;13.446;2023-04-06T00:48:03;2.93;;;2.73;;
76788;SDS011;65740;52.464;13.446;2023-04-06T00:50:30;2.60;;;2.40;;
76788;SDS011;65740;52.464;13.446;2023-04-06T00:52:55;2.93;;;2.73;;
76788;SDS011;65740;52.464;13.446;2023-04-06T00:55:21;3.17;;;2.97;;
76788;SDS011;65740;52.464;13.446;2023-04-06T00:57:47;3.70;;;3.10;;
76788;SDS011;65740;52.464;13.446;2023-04-06T01:00:15;3.50;;;3.07;;
76788;SDS011;65740;52.464;13.446;2023-04-06T01:02:41;3.20;;;3.00;;
76788;SDS011;65740;52.464;13.446;2023-04-06T01:05:07;2.83;;;2.63;;
76788;SDS011;65740;52.464;13.446;2023-04-06T01:07:33;2.70;;;2.50;;
76788;SDS011;65740;52.464;13.446;2023-04-06T01:09:59;2.87;;;2.63;;
76788;SDS011;65740;52.464;13.446;2023-04-06T01:12:25;3.50;;;3.23;;
76788;SDS011;65740;52.464;13.446;2023-04-06T01:14:51;2.87;;;2.67;;
76788;SDS011;65740;52.464;13.446;2023-04-06T01:17:16;2.80;;;2.60;;
76788;SDS011;65740;52.464;13.446;2023-04-06T01:19:42;3.70;;;3.40;;
76788;SDS011;65740;52.464;13.446;2023-04-06T01:22:13;2.90;;;2.70;;
76788;SDS011;65740;52.464;13.446;2023-04-06T01:24:41;3.00;;;2.80;;
76788;SDS011;65740;52.464;13.446;2023-04-06T01:27:06;3.20;;;3.00;;
76788;SDS011;65740;52.464;13.446;2023-04-06T01:29:32;3.20;;;3.00;;
76788;SDS011;65740;52.464;13.446;2023-04-06T01:31:58;2.87;;;2.67;;
76788;SDS011;65740;52.464;13.446;2023-04-06T01:34:23;2.70;;;2.53;;
76788;SDS011;65740;52.464;13.446;2023-04-06T01:36:49;3.20;;;3.00;;
76788;SDS011;65740;52.464;13.446;2023-04-06T01:39:15;3.13;;;2.90;;
76788;SDS011;65740;52.464;13.446;2023-04-06T01:41:41;3.13;;;2.93;;
76788;SDS011;65740;52.464;13.446;2023-04-06T01:44:06;2.93;;;2.73;;
76788;SDS011;65740;52.464;13.446;2023-04-06T01:46:32;3.50;;;3.20;;
76788;SDS011;65740;52.464;13.446;2023-04-06T01:48:58;3.30;;;3.10;;
76788;SDS011;65740;52.464;13.446;2023-04-06T01:51:23;3.53;;;2.83;;
76788;SDS011;65740;52.464;13.446;2023-04-06T01:53:50;3.10;;;2.90;;
76788;SDS011;65740;52.464;13.446;2023-04-06T01:56:16;2.80;;;2.60;;
76788;SDS011;65740;52.464;13.446;2023-04-06T01:58:42;2.93;;;2.73;;
76788;SDS011;65740;52.464;13.446;2023-04-06T02:01:07;2.70;;;2.50;;
76788;SDS011;65740;52.464;13.446;2023-04-06T02:03:33;2.70;;;2.50;;
76788;SDS011;65740;52.464;13.446;2023-04-06T02:05:59;2.73;;;2.53;;
76788;SDS011;65740;52.464;13.446;2023-04-06T02:08:25;3.17;;;2.97;;
76788;SDS011;65740;52.464;13.446;2023-04-06T02:10:50;3.20;;;3.00;;
76788;SDS011;65740;52.464;13.446;2023-04-06T02:13:17;3.07;;;2.87;;
76788;SDS011;65740;52.464;13.446;2023-04-06T02:15:42;3.07;;;2.87;;
76788;SDS011;65740;52.464;13.446;2023-04-06T02:18:08;2.90;;;2.73;;
76788;SDS011;65740;52.464;13.446;2023-04-06T02:20:35;2.90;;;2.70;;
76788;SDS011;65740;52.464;13.446;2023-04-06T02:23:00;2.90;;;2.70;;
76788;SDS011;65740;52.464;13.446;2023-04-06T02:25:26;2.47;;;2.37;;
76788;SDS011;65740;52.464;13.446;2023-04-06T02:27:52;3.03;;;2.83;;
76788;SDS011;65740;52.464;13.446;2023-04-06T02:30:17;3.00;;;2.80;;
76788;SDS011;65740;52.464;13.446;2023-04-06T02:32:43;3.07;;;2.87;;
76788;SDS011;65740;52.464;13.446;2023-04-06T02:35:09;3.10;;;2.90;;
76788;SDS011;65740;52.464;13.446;2023-04-06T02:37:34;2.90;;;2.70;;
76788;SDS011;65740;52.464;13.446;2023-04-06T02:40:00;3.20;;;3.00;;
76788;SDS011;65740;52.464;13.446;2023-04-06T02:42:26;3.00;;;2.80;;
76788;SDS011;65740;52.464;13.446;2023-04-06T02:44:51;3.10;;;2.90;;
76788;SDS011;65740;52.464;13.446;2023-04-06T02:47:17;3.27;;;3.07;;
76788;SDS011;65740;52.464;13.446;2023-04-06T02:49:43;3.20;;;3.00;;
76788;SDS011;65740;52.464;13.446;2023-04-06T02:52:08;2.87;;;2.67;;
76788;SDS011;65740;52.464;13.446;2023-04-06T02:54:34;3.07;;;2.87;;
76788;SDS011;65740;52.464;13.446;2023-04-06T02:57:00;3.03;;;2.83;;
76788;SDS011;65740;52.464;13.446;2023-04-06T02:59:25;3.00;;;2.80;;
76788;SDS011;65740;52.464;13.446;2023-04-06T03:01:51;2.83;;;2.63;;
76788;SDS011;65740;52.464;13.446;2023-04-06T03:04:17;2.80;;;2.60;;
76788;SDS011;65740;52.464;13.446;2023-04-06T03:06:42;2.93;;;2.73;;
76788;SDS011;65740;52.464;13.446;2023-04-06T03:09:08;2.67;;;2.47;;
76788;SDS011;65740;52.464;13.446;2023-04-06T03:11:33;2.60;;;2.43;;
76788;SDS011;65740;52.464;13.446;2023-04-06T03:13:59;2.60;;;2.40;;
76788;SDS011;65740;52.464;13.446;2023-04-06T03:16:25;2.70;;;2.50;;
76788;SDS011;65740;52.464;13.446;2023-04-06T03:18:51;2.80;;;2.60;;
76788;SDS011;65740;52.464;13.446;2023-04-06T03:21:16;2.20;;;2.10;;
76788;SDS011;65740;52.464;13.446;2023-04-06T03:23:42;3.27;;;2.97;;
76788;SDS011;65740;52.464;13.446;2023-04-06T03:26:08;2.77;;;2.57;;
76788;SDS011;65740;52.464;13.446;2023-04-06T03:28:33;2.60;;;2.47;;
76788;SDS011;65740;52.464;13.446;2023-04-06T03:30:59;2.77;;;2.60;;
76788;SDS011;65740;52.464;13.446;2023-04-06T03:33:25;2.60;;;2.50;;
76788;SDS011;65740;52.464;13.446;2023-04-06T03:35:53;3.00;;;2.80;;
76788;SDS011;65740;52.464;13.446;2023-04-06T03:38:19;2.70;;;2.50;;
76788;SDS011;65740;52.464;13.446;2023-04-06T03:40:45;3.17;;;2.97;;
76788;SDS011;65740;52.464;13.446;2023-04-06T03:43:11;3.07;;;2.87;;
76788;SDS011;65740;52.464;13.446;2023-04-06T03:45:36;3.30;;;3.10;;
76788;SDS011;65740;52.464;13.446;2023-04-06T03:48:02;3.00;;;2.80;;
76788;SDS011;65740;52.464;13.446;2023-04-06T03:50:28;3.13;;;2.93;;
76788;SDS011;65740;52.464;13.446;2023-04-06T03:52:54;2.60;;;2.50;;
76788;SDS011;65740;52.464;13.446;2023-04-06T03:55:20;2.80;;;2.60;;
76788;SDS011;65740;52.464;13.446;2023-04-06T03:57:45;2.40;;;2.30;;
76788;SDS011;65740;52.464;13.446;2023-04-06T04:00:11;3.30;;;3.10;;
76788;SDS011;65740;52.464;13.446;2023-04-06T04:02:37;2.83;;;2.63;;
76788;SDS011;65740;52.464;13.446;2023-04-06T04:05:04;3.13;;;2.93;;
76788;SDS011;65740;52.464;13.446;2023-04-06T04:07:30;3.10;;;2.90;;
76788;SDS011;65740;52.464;13.446;2023-04-06T04:09:55;2.87;;;2.63;;
76788;SDS011;65740;52.464;13.446;2023-04-06T04:12:21;3.00;;;2.80;;
76788;SDS011;65740;52.464;13.446;2023-04-06T04:14:47;2.87;;;2.67;;
76788;SDS011;65740;52.464;13.446;2023-04-06T04:17:13;2.77;;;2.57;;
76788;SDS011;65740;52.464;13.446;2023-04-06T04:19:38;3.10;;;2.90;;
76788;SDS011;65740;52.464;13.446;2023-04-06T04:22:04;3.10;;;2.90;;
76788;SDS011;65740;52.464;13.446;2023-04-06T04:24:31;2.60;;;2.50;;
76788;SDS011;65740;52.464;13.446;2023-04-06T04:26:57;3.17;;;2.97;;
76788;SDS011;65740;52.464;13.446;2023-04-06T04:29:22;2.93;;;2.80;;
76788;SDS011;65740;52.464;13.446;2023-04-06T04:31:48;3.07;;;2.93;;
76788;SDS011;65740;52.464;13.446;2023-04-06T04:34:15;3.30;;;3.10;;
76788;SDS011;65740;52.464;13.446;2023-04-06T04:36:40;3.43;;;3.23;;
76788;SDS011;65740;52.464;13.446;2023-04-06T04:39:07;3.77;;;3.47;;
76788;SDS011;65740;52.464;13.446;2023-04-06T04:41:33;3.10;;;2.90;;
76788;SDS011;65740;52.464;13.446;2023-04-06T04:43:58;2.73;;;2.57;;
76788;SDS011;65740;52.464;13.446;2023-04-06T04:46:24;3.10;;;2.90;;
76788;SDS011;65740;52.464;13.446;2023-04-06T04:48:50;3.47;;;3.27;;
76788;SDS011;65740;52.464;13.446;2023-04-06T04:51:15;3.20;;;3.00;;
76788;SDS011;65740;52.464;13.446;2023-04-06T04:53:41;3.60;;;3.40;;
76788;SDS011;65740;52.464;13.446;2023-04-06T04:56:07;3.30;;;3.10;;
76788;SDS011;65740;52.464;13.446;2023-04-06T04:58:32;3.57;;;3.37;;
76788;SDS011;65740;52.464;13.446;2023-04-06T05:00:58;3.37;;;3.17;;
76788;SDS011;65740;52.464;13.446;2023-04-06T05:03:24;3.40;;;3.20;;
76788;SDS011;65740;52.464;13.446;2023-04-06T05:05:51;3.47;;;3.27;;
76788;SDS011;65740;52.464;13.446;2023-04-06T05:08:18;3.70;;;3.47;;
76788;SDS011;65740;52.464;13.446;2023-04-06T05:10:43;2.83;;;2.73;;
76788;SDS011;65740;52.464;13.446;2023-04-06T05:13:10;3.30;;;3.10;;
76788;SDS011;65740;52.464;13.446;2023-04-06T05:15:36;3.93;;;3.67;;
76788;SDS011;65740;52.464;13.446;2023-04-06T05:18:05;3.60;;;3.40;;
76788;SDS011;65740;52.464;13.446;2023-04-06T05:20:32;3.77;;;3.57;;
76788;SDS011;65740;52.464;13.446;2023-04-06T05:22:57;3.23;;;3.03;;
76788;SDS011;65740;52.464;13.446;2023-04-06T05:25:23;3.30;;;3.10;;
76788;SDS011;65740;52.464;13.446;2023-04-06T05:27:49;3.33;;;3.13;;
76788;SDS011;65740;52.464;13.446;2023-04-06T05:30:15;3.40;;;3.20;;
76788;SDS011;65740;52.464;13.446;2023-04-06T05:32:41;3.37;;;3.17;;
76788;SDS011;65740;52.464;13.446;2023-04-06T05:35:08;3.20;;;3.00;;
76788;SDS011;65740;52.464;13.446;2023-04-06T05:37:34;3.10;;;2.90;;
76788;SDS011;65740;52.464;13.446;2023-04-06T05:40:00;3.60;;;3.40;;
76788;SDS011;65740;52.464;13.446;2023-04-06T05:42:25;3.10;;;2.90;;
76788;SDS011;65740;52.464;13.446;2023-04-06T05:44:52;3.57;;;3.37;;
76788;SDS011;65740;52.464;13.446;2023-04-06T05:47:17;3.27;;;3.07;;
76788;SDS011;65740;52.464;13.446;2023-04-06T05:49:43;3.30;;;3.10;;
76788;SDS011;65740;52.464;13.446;2023-04-06T05:52:09;3.10;;;2.90;;
76788;SDS011;65740;52.464;13.446;2023-04-06T05:54:36;3.90;;;3.70;;
76788;SDS011;65740;52.464;13.446;2023-04-06T05:57:02;3.67;;;3.47;;
76788;SDS011;65740;52.464;13.446;2023-04-06T05:59:29;3.20;;;3.00;;
76788;SDS011;65740;52.464;13.446;2023-04-06T06:01:56;3.30;;;3.10;;
76788;SDS011;65740;52.464;13.446;2023-04-06T06:04:21;3.70;;;3.50;;
76788;SDS011;65740;52.464;13.446;2023-04-06T06:06:47;3.20;;;3.00;;
76788;SDS011;65740;52.464;13.446;2023-04-06T06:09:13;3.67;;;3.47;;
76788;SDS011;65740;52.464;13.446;2023-04-06T06:11:38;3.10;;;2.90;;
76788;SDS011;65740;52.464;13.446;2023-04-06T06:14:05;3.33;;;3.13;;
76788;SDS011;65740;52.464;13.446;2023-04-06T06:16:31;3.67;;;3.47;;
76788;SDS011;65740;52.464;13.446;2023-04-06T06:18:57;3.30;;;3.10;;
76788;SDS011;65740;52.464;13.446;2023-04-06T06:21:22;3.07;;;2.87;;
76788;SDS011;65740;52.464;13.446;2023-04-06T06:23:48;3.90;;;3.70;;
76788;SDS011;65740;52.464;13.446;2023-04-06T06:26:15;3.27;;;3.07;;
76788;SDS011;65740;52.464;13.446;2023-04-06T06:28:41;3.20;;;3.00;;
76788;SDS011;65740;52.464;13.446;2023-04-06T06:31:07;3.20;;;3.00;;
76788;SDS011;65740;52.464;13.446;2023-04-06T06:33:32;3.50;;;3.30;;
76788;SDS011;65740;52.464;13.446;2023-04-06T06:35:58;3.50;;;3.30;;
76788;SDS011;65740;52.464;13.446;2023-04-06T06:38:24;3.23;;;3.03;;
76788;SDS011;65740;52.464;13.446;2023-04-06T06:40:50;3.80;;;3.60;;
76788;SDS011;65740;52.464;13.446;2023-04-06T06:43:15;4.20;;;3.90;;
76788;SDS011;65740;52.464;13.446;2023-04-06T06:45:41;3.47;;;3.27;;
76788;SDS011;65740;52.464;13.446;2023-04-06T06:48:07;3.83;;;3.63;;
76788;SDS011;65740;52.464;13.446;2023-04-06T06:50:33;5.60;;;3.40;;
76788;SDS011;65740;52.464;13.446;2023-04-06T06:52:58;3.07;;;2.93;;
76788;SDS011;65740;52.464;13.446;2023-04-06T06:55:24;3.53;;;3.33;;
76788;SDS011;65740;52.464;13.446;2023-04-06T06:57:51;3.40;;;3.13;;
76788;SDS011;65740;52.464;13.446;2023-04-06T07:00:18;3.30;;;3.10;;
76788;SDS011;65740;52.464;13.446;2023-04-06T07:02:45;3.50;;;3.30;;
76788;SDS011;65740;52.464;13.446;2023-04-06T07:05:12;3.80;;;3.50;;
76788;SDS011;65740;52.464;13.446;2023-04-06T07:07:38;4.00;;;3.70;;
76788;SDS011;65740;52.464;13.446;2023-04-06T07:10:04;3.70;;;3.50;;
76788;SDS011;65740;52.464;13.446;2023-04-06T07:12:30;3.30;;;3.07;;
76788;SDS011;65740;52.464;13.446;2023-04-06T07:14:55;3.50;;;3.30;;
76788;SDS011;65740;52.464;13.446;2023-04-06T07:17:21;3.60;;;3.40;;
76788;SDS011;65740;52.464;13.446;2023-04-06T07:19:47;3.43;;;3.23;;
76788;SDS011;65740;52.464;13.446;2023-04-06T07:22:12;3.63;;;3.33;;
76788;SDS011;65740;52.464;13.446;2023-04-06T07:24:38;3.70;;;3.50;;
76788;SDS011;65740;52.464;13.446;2023-04-06T07:27:04;3.37;;;3.13;;
76788;SDS011;65740;52.464;13.446;2023-04-06T07:29:29;3.73;;;3.53;;
76788;SDS011;65740;52.464;13.446;2023-04-06T07:31:55;3.63;;;3.40;;
76788;SDS011;65740;52.464;13.446;2023-04-06T07:34:21;3.57;;;3.27;;
76788;SDS011;65740;52.464;13.446;2023-04-06T07:36:47;3.90;;;3.60;;
76788;SDS011;65740;52.464;13.446;2023-04-06T07:39:13;3.50;;;3.20;;
76788;SDS011;65740;52.464;13.446;2023-04-06T07:41:39;3.07;;;2.87;;
76788;SDS011;65740;52.464;13.446;2023-04-06T07:44:05;2.93;;;2.80;;
76788;SDS011;65740;52.464;13.446;2023-04-06T07:46:30;4.43;;;3.20;;
76788;SDS011;65740;52.464;13.446;2023-04-06T07:48:56;3.83;;;3.50;;
76788;SDS011;65740;52.464;13.446;2023-04-06T07:51:24;3.10;;;2.90;;
76788;SDS011;65740;52.464;13.446;2023-04-06T07:53:51;3.20;;;3.00;;
76788;SDS011;65740;52.464;13.446;2023-04-06T07:56:17;3.73;;;3.43;;
76788;SDS011;65740;52.464;13.446;2023-04-06T07:58:43;3.43;;;3.20;;
76788;SDS011;65740;52.464;13.446;2023-04-06T08:01:09;3.17;;;2.87;;
76788;SDS011;65740;52.464;13.446;2023-04-06T08:03:35;3.70;;;3.40;;
76788;SDS011;65740;52.464;13.446;2023-04-06T08:06:01;3.70;;;3.40;;
76788;SDS011;65740;52.464;13.446;2023-04-06T08:08:27;3.80;;;3.60;;
76788;SDS011;65740;52.464;13.446;2023-04-06T08:10:53;4.70;;;3.60;;
76788;SDS011;65740;52.464;13.446;2023-04-06T08:13:19;3.30;;;3.10;;
76788;SDS011;65740;52.464;13.446;2023-04-06T08:15:45;3.70;;;3.40;;
76788;SDS011;65740;52.464;13.446;2023-04-06T08:18:11;3.53;;;3.23;;
76788;SDS011;65740;52.464;13.446;2023-04-06T08:20:37;4.07;;;3.77;;
76788;SDS011;65740;52.464;13.446;2023-04-06T08:23:03;3.87;;;3.67;;
76788;SDS011;65740;52.464;13.446;2023-04-06T08:25:29;3.10;;;2.90;;
76788;SDS011;65740;52.464;13.446;2023-04-06T08:27:55;3.30;;;3.10;;
76788;SDS011;65740;52.464;13.446;2023-04-06T08:30:21;4.77;;;3.50;;
76788;SDS011;65740;52.464;13.446;2023-04-06T08:32:46;3.50;;;3.30;;
76788;SDS011;65740;52.464;13.446;2023-04-06T08:35:12;3.47;;;3.20;;
76788;SDS011;65740;52.464;13.446;2023-04-06T08:37:38;3.60;;;3.30;;
76788;SDS011;65740;52.464;13.446;2023-04-06T08:40:04;5.03;;;3.90;;
76788;SDS011;65740;52.464;13.446;2023-04-06T08:42:33;4.03;;;3.73;;
76788;SDS011;65740;52.464;13.446;2023-04-06T08:45:06;4.30;;;3.23;;
76788;SDS011;65740;52.464;13.446;2023-04-06T08:47:34;4.97;;;3.10;;
76788;SDS011;65740;52.464;13.446;2023-04-06T08:50:02;4.17;;;3.53;;
76788;SDS011;65740;52.464;13.446;2023-04-06T08:52:29;4.90;;;3.70;;
76788;SDS011;65740;52.464;13.446;2023-04-06T08:54:58;2.90;;;2.80;;
76788;SDS011;65740;52.464;13.446;2023-04-06T08:57:24;4.93;;;3.40;;
76788;SDS011;65740;52.464;13.446;2023-04-06T08:59:51;5.30;;;3.17;;
76788;SDS011;65740;52.464;13.446;2023-04-06T09:02:18;3.60;;;3.30;;
76788;SDS011;65740;52.464;13.446;2023-04-06T09:04:47;3.27;;;3.07;;
76788;SDS011;65740;52.464;13.446;2023-04-06T09:07:15;10.90;;;3.07;;
76788;SDS011;65740;52.464;13.446;2023-04-06T09:09:41;4.30;;;3.63;;
76788;SDS011;65740;52.464;13.446;2023-04-06T09:12:22;3.67;;;3.37;;
76788;SDS011;65740;52.464;13.446;2023-04-06T09:14:49;3.57;;;3.27;;
76788;SDS011;65740;52.464;13.446;2023-04-06T09:17:24;3.47;;;3.17;;
76788;SDS011;65740;52.464;13.446;2023-04-06T09:19:51;4.30;;;3.90;;
76788;SDS011;65740;52.464;13.446;2023-04-06T09:22:18;3.80;;;3.60;;
76788;SDS011;65740;52.464;13.446;2023-04-06T09:27:14;3.47;;;2.93;;
76788;SDS011;65740;52.464;13.446;2023-04-06T09:29:43;3.30;;;3.00;;
76788;SDS011;65740;52.464;13.446;2023-04-06T09:32:10;5.80;;;3.43;;
76788;SDS011;65740;52.464;13.446;2023-04-06T09:34:39;10.00;;;3.80;;
76788;SDS011;65740;52.464;13.446;2023-04-06T09:37:18;5.50;;;3.07;;
76788;SDS011;65740;52.464;13.446;2023-04-06T09:39:44;3.60;;;3.30;;
76788;SDS011;65740;52.464;13.446;2023-04-06T09:42:23;16.47;;;4.10;;
76788;SDS011;65740;52.464;13.446;2023-04-06T09:44:50;3.97;;;3.67;;
76788;SDS011;65740;52.464;13.446;2023-04-06T09:47:16;4.93;;;3.60;;
76788;SDS011;65740;52.464;13.446;2023-04-06T09:49:43;3.77;;;3.30;;
76788;SDS011;65740;52.464;13.446;2023-04-06T09:52:10;4.47;;;4.07;;
76788;SDS011;65740;52.464;13.446;2023-04-06T09:54:37;5.30;;;3.30;;
76788;SDS011;65740;52.464;13.446;2023-04-06T09:59:49;3.27;;;3.07;;
76788;SDS011;65740;52.464;13.446;2023-04-06T10:05:04;4.20;;;3.50;;
76788;SDS011;65740;52.464;13.446;2023-04-06T10:07:34;4.93;;;3.10;;
76788;SDS011;65740;52.464;13.446;2023-04-06T10:10:02;3.30;;;3.07;;
76788;SDS011;65740;52.464;13.446;2023-04-06T10:12:28;4.30;;;3.40;;
76788;SDS011;65740;52.464;13.446;2023-04-06T10:14:54;4.40;;;3.40;;
76788;SDS011;65740;52.464;13.446;2023-04-06T10:17:21;3.87;;;3.67;;
76788;SDS011;65740;52.464;13.446;2023-04-06T10:19:54;3.57;;;3.27;;
76788;SDS011;65740;52.464;13.446;2023-04-06T10:22:29;3.53;;;3.30;;
76788;SDS011;65740;52.464;13.446;2023-04-06T10:25:03;5.40;;;3.67;;
76788;SDS011;65740;52.464;13.446;2023-04-06T10:27:29;3.87;;;3.30;;
76788;SDS011;65740;52.464;13.446;2023-04-06T10:30:00;3.90;;;3.50;;
76788;SDS011;65740;52.464;13.446;2023-04-06T10:32:46;3.67;;;3.37;;
76788;SDS011;65740;52.464;13.446;2023-04-06T10:35:11;4.20;;;2.90;;
76788;SDS011;65740;52.464;13.446;2023-04-06T10:37:50;4.00;;;3.23;;
76788;SDS011;65740;52.464;13.446;2023-04-06T10:40:21;3.70;;;3.40;;
76788;SDS011;65740;52.464;13.446;2023-04-06T10:42:53;3.80;;;3.40;;
76788;SDS011;65740;52.464;13.446;2023-04-06T10:45:24;8.27;;;3.40;;
76788;SDS011;65740;52.464;13.446;2023-04-06T10:47:54;3.20;;;3.00;;
76788;SDS011;65740;52.464;13.446;2023-04-06T10:50:20;3.17;;;2.90;;
76788;SDS011;65740;52.464;13.446;2023-04-06T10:52:46;3.57;;;3.37;;
76788;SDS011;65740;52.464;13.446;2023-04-06T10:55:22;4.13;;;3.37;;
76788;SDS011;65740;52.464;13.446;2023-04-06T10:57:51;4.10;;;3.80;;
76788;SDS011;65740;52.464;13.446;2023-04-06T11:00:17;3.57;;;3.30;;
76788;SDS011;65740;52.464;13.446;2023-04-06T11:02:44;4.10;;;2.80;;
76788;SDS011;65740;52.464;13.446;2023-04-06T11:05:10;3.50;;;3.30;;
76788;SDS011;65740;52.464;13.446;2023-04-06T11:07:37;3.40;;;3.10;;
76788;SDS011;65740;52.464;13.446;2023-04-06T11:10:04;5.23;;;2.90;;
76788;SDS011;65740;52.464;13.446;2023-04-06T11:12:30;3.43;;;2.83;;
76788;SDS011;65740;52.464;13.446;2023-04-06T11:14:56;3.50;;;3.20;;
76788;SDS011;65740;52.464;13.446;2023-04-06T11:17:34;3.87;;;3.53;;
76788;SDS011;65740;52.464;13.446;2023-04-06T11:20:01;4.30;;;3.90;;
76788;SDS011;65740;52.464;13.446;2023-04-06T11:22:28;5.07;;;3.70;;
76788;SDS011;65740;52.464;13.446;2023-04-06T11:25:04;9.00;;;4.27;;
76788;SDS011;65740;52.464;13.446;2023-04-06T11:27:31;8.37;;;5.83;;
76788;SDS011;65740;52.464;13.446;2023-04-06T11:29:59;10.73;;;8.40;;
76788;SDS011;65740;52.464;13.446;2023-04-06T11:32:25;18.93;;;11.07;;
76788;SDS011;65740;52.464;13.446;2023-04-06T11:34:51;16.10;;;10.77;;
76788;SDS011;65740;52.464;13.446;2023-04-06T11:37:16;23.80;;;13.03;;
76788;SDS011;65740;52.464;13.446;2023-04-06T11:39:50;24.87;;;14.27;;
76788;SDS011;65740;52.464;13.446;2023-04-06T11:42:23;27.87;;;16.70;;
76788;SDS011;65740;52.464;13.446;2023-04-06T11:44:56;17.87;;;12.80;;
76788;SDS011;65740;52.464;13.446;2023-04-06T11:47:26;25.23;;;14.00;;
76788;SDS011;65740;52.464;13.446;2023-04-06T11:49:53;15.60;;;12.93;;
76788;SDS011;65740;52.464;13.446;2023-04-06T11:52:20;25.50;;;13.73;;
76788;SDS011;65740;52.464;13.446;2023-04-06T11:54:50;14.47;;;12.07;;
76788;SDS011;65740;52.464;13.446;2023-04-06T11:57:18;22.87;;;11.47;;
76788;SDS011;65740;52.464;13.446;2023-04-06T11:59:44;22.57;;;14.07;;
76788;SDS011;65740;52.464;13.446;2023-04-06T12:02:10;20.33;;;13.43;;
76788;SDS011;65740;52.464;13.446;2023-04-06T12:04:36;17.17;;;12.37;;
76788;SDS011;65740;52.464;13.446;2023-04-06T12:07:02;23.73;;;12.50;;
76788;SDS011;65740;52.464;13.446;2023-04-06T12:09:29;32.50;;;12.73;;
76788;SDS011;65740;52.464;13.446;2023-04-06T12:11:55;21.40;;;11.93;;
76788;SDS011;65740;52.464;13.446;2023-04-06T12:14:21;21.10;;;11.57;;
76788;SDS011;65740;52.464;13.446;2023-04-06T12:16:48;18.23;;;11.03;;
76788;SDS011;65740;52.464;13.446;2023-04-06T12:19:14;19.17;;;10.17;;
76788;SDS011;65740;52.464;13.446;2023-04-06T12:21:42;17.80;;;9.97;;
76788;SDS011;65740;52.464;13.446;2023-04-06T12:24:08;18.33;;;11.13;;
76788;SDS011;65740;52.464;13.446;2023-04-06T12:26:33;26.00;;;10.10;;
76788;SDS011;65740;52.464;13.446;2023-04-06T12:28:59;17.73;;;9.50;;
76788;SDS011;65740;52.464;13.446;2023-04-06T12:31:31;14.20;;;9.37;;
76788;SDS011;65740;52.464;13.446;2023-04-06T12:33:58;16.23;;;9.93;;
76788;SDS011;65740;52.464;13.446;2023-04-06T12:36:23;13.80;;;9.00;;
76788;SDS011;65740;52.464;13.446;2023-04-06T12:38:50;15.83;;;8.77;;
76788;SDS011;65740;52.464;13.446;2023-04-06T12:41:16;14.07;;;8.33;;
76788;SDS011;65740;52.464;13.446;2023-04-06T12:43:42;15.40;;;8.60;;
76788;SDS011;65740;52.464;13.446;2023-04-06T12:46:09;14.27;;;7.90;;
76788;SDS011;65740;52.464;13.446;2023-04-06T12:48:35;12.50;;;8.30;;
76788;SDS011;65740;52.464;13.446;2023-04-06T12:51:02;11.67;;;7.50;;
76788;SDS011;65740;52.464;13.446;2023-04-06T12:53:32;10.67;;;6.63;;
76788;SDS011;65740;52.464;13.446;2023-04-06T12:55:59;13.30;;;7.40;;
76788;SDS011;65740;52.464;13.446;2023-04-06T12:58:25;15.27;;;7.00;;
76788;SDS011;65740;52.464;13.446;2023-04-06T13:00:52;13.43;;;7.27;;
76788;SDS011;65740;52.464;13.446;2023-04-06T13:03:18;11.03;;;7.20;;
76788;SDS011;65740;52.464;13.446;2023-04-06T13:05:49;11.13;;;6.87;;
76788;SDS011;65740;52.464;13.446;2023-04-06T13:08:16;12.90;;;6.37;;
76788;SDS011;65740;52.464;13.446;2023-04-06T13:10:49;15.20;;;7.40;;
76788;SDS011;65740;52.464;13.446;2023-04-06T13:13:17;9.43;;;6.30;;
76788;SDS011;65740;52.464;13.446;2023-04-06T13:15:50;15.37;;;5.97;;
76788;SDS011;65740;52.464;13.446;2023-04-06T13:18:17;8.90;;;6.23;;
76788;SDS011;65740;52.464;13.446;2023-04-06T13:20:42;10.00;;;6.43;;
76788;SDS011;65740;52.464;13.446;2023-04-06T13:23:08;6.57;;;5.80;;
76788;SDS011;65740;52.464;13.446;2023-04-06T13:25:34;13.17;;;6.23;;
76788;SDS011;65740;52.464;13.446;2023-04-06T13:28:00;8.67;;;5.63;;
76788;SDS011;65740;52.464;13.446;2023-04-06T13:30:26;15.33;;;6.57;;
76788;SDS011;65740;52.464;13.446;2023-04-06T13:32:51;10.50;;;5.93;;
76788;SDS011;65740;52.464;13.446;2023-04-06T13:35:17;9.30;;;5.93;;
76788;SDS011;65740;52.464;13.446;2023-04-06T13:37:43;11.33;;;6.70;;
76788;SDS011;65740;52.464;13.446;2023-04-06T13:40:09;8.33;;;6.30;;
76788;SDS011;65740;52.464;13.446;2023-04-06T13:42:36;6.50;;;5.00;;
76788;SDS011;65740;52.464;13.446;2023-04-06T13:45:03;7.80;;;5.60;;
76788;SDS011;65740;52.464;13.446;2023-04-06T13:47:29;9.77;;;5.53;;
76788;SDS011;65740;52.464;13.446;2023-04-06T13:49:55;10.30;;;5.90;;
76788;SDS011;65740;52.464;13.446;2023-04-06T13:52:21;5.87;;;4.67;;
76788;SDS011;65740;52.464;13.446;2023-04-06T13:54:46;7.20;;;5.30;;
76788;SDS011;65740;52.464;13.446;2023-04-06T13:57:13;9.47;;;5.30;;
76788;SDS011;65740;52.464;13.446;2023-04-06T13:59:38;12.37;;;5.70;;
76788;SDS011;65740;52.464;13.446;2023-04-06T14:02:05;8.87;;;5.87;;
76788;SDS011;65740;52.464;13.446;2023-04-06T14:04:32;6.60;;;5.20;;
76788;SDS011;65740;52.464;13.446;2023-04-06T14:06:58;8.00;;;5.53;;
76788;SDS011;65740;52.464;13.446;2023-04-06T14:09:25;7.70;;;4.97;;
76788;SDS011;65740;52.464;13.446;2023-04-06T14:11:51;10.53;;;6.30;;
76788;SDS011;65740;52.464;13.446;2023-04-06T14:14:17;10.27;;;5.43;;
76788;SDS011;65740;52.464;13.446;2023-04-06T14:16:43;5.73;;;4.33;;
76788;SDS011;65740;52.464;13.446;2023-04-06T14:19:12;8.37;;;5.17;;
76788;SDS011;65740;52.464;13.446;2023-04-06T14:21:40;7.70;;;4.73;;
76788;SDS011;65740;52.464;13.446;2023-04-06T14:24:07;6.90;;;5.30;;
76788;SDS011;65740;52.464;13.446;2023-04-06T14:26:34;9.40;;;5.13;;
76788;SDS011;65740;52.464;13.446;2023-04-06T14:29:00;6.60;;;4.70;;
76788;SDS011;65740;52.464;13.446;2023-04-06T14:31:27;8.37;;;4.93;;
76788;SDS011;65740;52.464;13.446;2023-04-06T14:33:53;9.23;;;5.20;;
76788;SDS011;65740;52.464;13.446;2023-04-06T14:36:18;5.97;;;4.53;;